Weather at Sepang F1 Parking A Helipad

Public forecast

Using degrees Celsius for public forecast. Weather courtesy of forecast.io.

Closest aviation weather report (METAR) to Sepang F1 Parking A Helipad

Closest report is Kuala Lumpur International Airport, 1.3 nm (2.5 km) SW.

2024/04/12 18:30 (retrieved 15 minutes ago)

WMKK 121830Z 07004KT 010V150 9999 FEW017CB 27/25 Q1008 NOSIG

Closest aviation forecast (TAF) to Sepang F1 Parking A Helipad

Closest forecast is Kuala Lumpur International Airport, 1.3 nm (2.5 km) SW.

2024/04/12 18:13 (retrieved 32 minutes ago)

TAF WMKK 121700Z 1218/1400 VRB02KT 9000 FEW030 TEMPO 1307/1311 4000 TSRA FEW017CB SCT018